Time;durP1;ratioP1;P1;durP2;ratioP2;P2;SDS_P1;SDS_P2;PMS_P1;PMS_P2;Temp;Humidity;BMP_temperature;BMP_pressure;BME280_temperature;BME280_humidity;BME280_pressure;Samples;Min_cycle;Max_cycle;Signal;HPM_P1;HPM_P2
2023/07/24 00:01:54;;;;;;;5.40;3.50;;;;;;;22.49;44.84;98459.52;107987;1307;22223;-47
2023/07/24 00:04:20;;;;;;;5.30;3.50;;;;;;;22.48;44.89;98458.58;108009;1295;22200;-42
2023/07/24 00:06:45;;;;;;;11.00;3.40;;;;;;;22.45;44.87;98460.83;108003;1307;22757;-47
2023/07/24 00:09:10;;;;;;;9.50;3.70;;;;;;;22.41;45.03;98460.30;108006;1307;23057;-44
2023/07/24 00:11:36;;;;;;;11.60;3.60;;;;;;;22.38;45.06;98455.46;108002;1307;22406;-46
2023/07/24 00:14:01;;;;;;;5.00;3.50;;;;;;;22.37;44.90;98453.20;108004;1307;23396;-48
2023/07/24 00:16:26;;;;;;;7.80;3.60;;;;;;;22.36;45.24;98453.00;107987;1307;22235;-49
2023/07/24 00:18:51;;;;;;;9.80;3.00;;;;;;;22.34;45.18;98448.47;107992;1307;22450;-54
2023/07/24 00:21:17;;;;;;;6.90;3.40;;;;;;;22.33;45.02;98447.56;108013;1307;22225;-51
2023/07/24 00:23:42;;;;;;;12.40;3.40;;;;;;;22.32;45.04;98443.98;108007;1307;23063;-45
2023/07/24 00:26:07;;;;;;;7.70;3.50;;;;;;;22.32;44.96;98441.85;108015;1307;22208;-47
2023/07/24 00:28:32;;;;;;;6.00;3.20;;;;;;;22.31;45.05;98440.06;108000;1307;22849;-45
2023/07/24 00:30:58;;;;;;;7.50;3.70;;;;;;;22.30;45.05;98433.13;108016;1307;22462;-44
2023/07/24 00:33:23;;;;;;;8.50;3.50;;;;;;;22.30;45.05;98434.31;108011;1307;22245;-48
2023/07/24 00:35:48;;;;;;;6.00;3.40;;;;;;;22.29;45.09;98431.58;108012;1307;22162;-45
2023/07/24 00:38:14;;;;;;;12.80;3.90;;;;;;;22.28;45.17;98435.24;108011;1307;22202;-49
2023/07/24 00:40:39;;;;;;;7.40;3.50;;;;;;;22.27;44.76;98435.00;107994;1307;23238;-51
2023/07/24 00:43:04;;;;;;;7.30;3.20;;;;;;;22.25;44.75;98435.92;107986;1307;22276;-50
2023/07/24 00:45:30;;;;;;;10.10;3.50;;;;;;;22.23;44.80;98437.19;107992;1307;22254;-48
2023/07/24 00:47:55;;;;;;;7.70;3.10;;;;;;;22.21;44.81;98436.48;107985;1307;22463;-48
2023/07/24 00:50:21;;;;;;;6.90;3.70;;;;;;;22.20;44.55;98427.56;108009;1307;22322;-45
2023/07/24 00:52:47;;;;;;;4.60;3.30;;;;;;;22.18;44.68;98426.10;108016;1307;22452;-48
2023/07/24 00:55:13;;;;;;;5.20;3.30;;;;;;;22.18;45.04;98423.13;108016;1307;22182;-46
2023/07/24 00:57:40;;;;;;;9.90;3.50;;;;;;;22.17;45.00;98425.67;108005;1307;22394;-48
2023/07/24 01:00:06;;;;;;;5.30;3.20;;;;;;;22.16;44.89;98427.96;108004;1307;22302;-44
2023/07/24 01:02:32;;;;;;;9.30;3.70;;;;;;;22.16;44.88;98424.29;107743;1307;22391;-41
2023/07/24 01:04:57;;;;;;;8.50;3.50;;;;;;;22.13;44.69;98420.33;108001;1307;22439;-49
2023/07/24 01:07:23;;;;;;;5.10;3.30;;;;;;;22.13;44.68;98418.73;108026;1288;22425;-48
2023/07/24 01:09:50;;;;;;;6.80;3.40;;;;;;;22.13;44.53;98417.98;108000;1307;22214;-45
2023/07/24 01:12:42;;;;;;;11.00;3.10;;;;;;;22.12;44.51;98416.02;108007;1307;22459;-45
2023/07/24 01:15:14;;;;;;;5.10;3.10;;;;;;;22.10;44.45;98417.96;107236;1314;22265;-46
2023/07/24 01:17:45;;;;;;;3.50;3.00;;;;;;;22.09;44.68;98419.35;107216;1291;22677;-47
2023/07/24 01:20:12;;;;;;;7.10;3.20;;;;;;;22.07;44.68;98416.06;107230;1314;22277;-41
2023/07/24 01:23:11;;;;;;;7.10;3.10;;;;;;;22.05;44.55;98415.55;107207;1314;22378;-44
2023/07/24 01:25:53;;;;;;;5.00;3.20;;;;;;;22.05;44.64;98419.13;107212;1314;22290;-47
2023/07/24 01:28:18;;;;;;;5.20;2.70;;;;;;;22.02;44.70;98421.26;107216;1314;22461;-45
2023/07/24 01:30:44;;;;;;;5.20;3.00;;;;;;;21.99;44.79;98424.96;107250;1314;23030;-49
2023/07/24 01:33:09;;;;;;;7.50;3.30;;;;;;;21.97;44.85;98418.29;107207;1314;22275;-45
2023/07/24 01:35:36;;;;;;;6.20;3.40;;;;;;;21.94;44.83;98419.67;107240;1314;22362;-47
2023/07/24 01:38:03;;;;;;;4.80;3.50;;;;;;;21.90;44.98;98414.78;107221;1314;22396;-48
2023/07/24 01:40:29;;;;;;;4.10;3.40;;;;;;;21.84;45.10;98412.86;107250;1314;22279;-48
2023/07/24 01:42:54;;;;;;;5.40;3.20;;;;;;;21.77;45.33;98413.41;107203;1314;22242;-45
2023/07/24 01:45:20;;;;;;;8.80;3.30;;;;;;;21.72;45.48;98412.04;107220;1314;22253;-48
2023/07/24 01:47:45;;;;;;;5.30;3.20;;;;;;;21.69;45.51;98411.85;107222;1314;22401;-47
2023/07/24 01:50:10;;;;;;;5.60;3.20;;;;;;;21.67;45.80;98412.52;107226;1314;22293;-45
2023/07/24 01:52:36;;;;;;;12.80;3.20;;;;;;;21.63;45.62;98409.16;107632;1307;22319;-50
2023/07/24 01:55:01;;;;;;;5.50;2.80;;;;;;;21.59;45.90;98403.70;108012;1307;22424;-47
2023/07/24 01:57:26;;;;;;;9.00;3.20;;;;;;;21.56;45.96;98401.65;108012;1307;23227;-49
2023/07/24 01:59:52;;;;;;;6.20;3.10;;;;;;;21.52;46.59;98398.20;108009;1307;22228;-46
2023/07/24 02:02:17;;;;;;;5.50;3.40;;;;;;;21.49;46.04;98397.21;107989;1307;23168;-50
2023/07/24 02:04:42;;;;;;;4.30;3.20;;;;;;;21.44;46.54;98399.02;107978;1307;22230;-46
2023/07/24 02:07:07;;;;;;;4.50;2.90;;;;;;;21.39;46.59;98389.98;108016;1307;22297;-48
2023/07/24 02:09:33;;;;;;;6.60;3.00;;;;;;;21.36;46.38;98390.59;108020;1307;22217;-43
2023/07/24 02:11:58;;;;;;;3.60;2.70;;;;;;;21.34;46.44;98384.26;108012;1307;22405;-45
2023/07/24 02:14:24;;;;;;;3.50;2.70;;;;;;;21.32;46.73;98384.88;108000;1307;22404;-51
2023/07/24 02:16:49;;;;;;;7.00;2.90;;;;;;;21.29;47.06;98381.77;107995;1307;22368;-46
2023/07/24 02:19:14;;;;;;;3.10;2.80;;;;;;;21.29;46.91;98383.41;108002;1293;22232;-46
2023/07/24 02:21:40;;;;;;;4.90;2.60;;;;;;;21.27;46.85;98382.19;107989;1307;22342;-46
2023/07/24 02:24:06;;;;;;;6.40;2.80;;;;;;;21.25;47.03;98384.27;108006;1307;22249;-45
2023/07/24 02:26:31;;;;;;;5.90;3.00;;;;;;;21.20;47.53;98384.40;108006;1307;22247;-48
2023/07/24 02:28:56;;;;;;;7.20;3.00;;;;;;;21.16;47.66;98387.39;108003;1307;22240;-47
2023/07/24 02:31:22;;;;;;;5.70;2.90;;;;;;;21.16;47.55;98389.23;108008;1307;22235;-43
2023/07/24 02:33:47;;;;;;;7.70;3.30;;;;;;;21.15;47.83;98388.60;108021;1307;22251;-51
2023/07/24 02:36:12;;;;;;;5.00;3.10;;;;;;;21.14;48.05;98396.77;107992;1307;22252;-47
2023/07/24 02:38:37;;;;;;;4.40;3.10;;;;;;;21.12;47.96;98397.34;108011;1307;22230;-44
2023/07/24 02:43:57;;;;;;;4.80;2.80;;;;;;;21.15;47.90;98400.40;106917;1305;545667;-52
2023/07/24 02:46:24;;;;;;;3.40;2.80;;;;;;;21.09;48.00;98399.77;107246;1314;22848;-47
2023/07/24 02:48:49;;;;;;;5.60;3.10;;;;;;;21.07;47.81;98401.53;107532;1310;22470;-49
2023/07/24 02:51:14;;;;;;;3.50;2.90;;;;;;;21.05;47.86;98399.27;107508;1310;22293;-51
2023/07/24 02:53:40;;;;;;;5.70;3.10;;;;;;;21.02;47.97;98397.52;107527;1310;22880;-49
2023/07/24 02:56:06;;;;;;;9.50;3.00;;;;;;;20.99;48.18;98395.85;107539;1310;22433;-43
2023/07/24 02:58:31;;;;;;;4.30;3.10;;;;;;;20.98;48.17;98400.17;107344;1307;23141;-45
2023/07/24 03:01:06;;;;;;;6.10;3.20;;;;;;;20.94;48.39;98400.05;107804;1308;22476;-45
2023/07/24 03:03:32;;;;;;;5.40;3.30;;;;;;;20.89;48.44;98397.13;107826;1308;22431;-49
2023/07/24 03:05:58;;;;;;;5.70;2.90;;;;;;;20.88;48.41;98393.59;107826;1308;22322;-48
2023/07/24 03:08:23;;;;;;;11.60;2.90;;;;;;;20.88;48.43;98396.27;107852;1298;22466;-50
2023/07/24 03:10:48;;;;;;;4.10;3.10;;;;;;;20.87;48.38;98395.27;107833;1308;22301;-50
2023/07/24 03:13:14;;;;;;;7.40;2.70;;;;;;;20.84;48.67;98395.81;107808;1307;22233;-42
2023/07/24 03:15:39;;;;;;;5.70;3.00;;;;;;;20.81;48.61;98391.85;107853;1308;23214;-47
2023/07/24 03:18:04;;;;;;;9.40;2.80;;;;;;;20.79;48.97;98390.66;107812;1308;23109;-41
2023/07/24 03:20:29;;;;;;;4.80;2.80;;;;;;;20.79;49.05;98389.62;107824;1308;23067;-50
2023/07/24 03:22:55;;;;;;;8.20;3.20;;;;;;;20.79;48.91;98389.31;107844;1308;22227;-46
2023/07/24 03:25:20;;;;;;;3.80;3.10;;;;;;;20.76;49.23;98390.14;107752;1308;22448;-48
2023/07/24 03:27:45;;;;;;;6.90;3.10;;;;;;;20.75;49.37;98391.48;107727;1308;22407;-48
2023/07/24 03:30:11;;;;;;;4.30;2.60;;;;;;;20.75;49.56;98392.38;107737;1308;22527;-45
2023/07/24 03:32:37;;;;;;;5.20;2.80;;;;;;;20.75;49.34;98390.75;107749;1308;22959;-45
2023/07/24 03:35:03;;;;;;;8.20;2.80;;;;;;;20.77;49.62;98393.77;107727;1308;22960;-45
2023/07/24 03:37:29;;;;;;;6.90;3.00;;;;;;;20.78;49.71;98393.33;107755;1308;22471;-44
2023/07/24 03:39:54;;;;;;;5.80;3.10;;;;;;;20.80;50.13;98393.63;107712;1308;22651;-49
2023/07/24 03:42:27;;;;;;;9.10;3.50;;;;;;;20.81;50.55;98397.73;107730;1308;22233;-47
2023/07/24 03:44:53;;;;;;;4.30;3.30;;;;;;;20.82;50.61;98392.80;107744;1299;22405;-44
2023/07/24 03:47:18;;;;;;;8.90;3.40;;;;;;;20.83;50.73;98388.73;107764;1308;22479;-44
2023/07/24 03:49:43;;;;;;;6.80;3.50;;;;;;;20.84;50.85;98390.48;107747;1308;23118;-47
2023/07/24 03:52:08;;;;;;;9.50;3.40;;;;;;;20.84;50.75;98393.44;107739;1308;22263;-43
2023/07/24 03:54:34;;;;;;;6.40;3.10;;;;;;;20.85;50.66;98390.37;107752;1308;22265;-49
2023/07/24 03:56:59;;;;;;;3.90;3.30;;;;;;;20.85;50.57;98389.70;107763;1308;22431;-47
2023/07/24 03:59:24;;;;;;;6.60;3.10;;;;;;;20.84;50.82;98390.77;107740;1308;22580;-44
2023/07/24 04:01:50;;;;;;;6.20;3.20;;;;;;;20.84;50.92;98388.67;107731;1308;22261;-46
2023/07/24 04:04:15;;;;;;;5.20;3.60;;;;;;;20.86;50.84;98386.89;107743;1308;22994;-49
2023/07/24 04:06:41;;;;;;;5.00;3.30;;;;;;;20.86;50.99;98388.27;107725;1308;22281;-45
2023/07/24 04:09:06;;;;;;;5.10;3.40;;;;;;;20.85;51.48;98388.80;107731;1308;23092;-43
2023/07/24 04:11:31;;;;;;;7.70;3.60;;;;;;;20.84;50.89;98389.01;107743;1308;22560;-44
2023/07/24 04:13:56;;;;;;;6.50;3.70;;;;;;;20.85;51.21;98386.09;107720;1308;23080;-43
2023/07/24 04:16:22;;;;;;;6.40;3.40;;;;;;;20.84;51.44;98390.81;107729;1308;22763;-47
2023/07/24 04:18:47;;;;;;;4.00;3.50;;;;;;;20.86;51.46;98388.99;107717;1308;22328;-47
2023/07/24 04:21:12;;;;;;;10.40;3.50;;;;;;;20.88;51.36;98391.05;107739;1291;22280;-51
2023/07/24 04:23:37;;;;;;;5.00;3.40;;;;;;;20.91;51.22;98394.52;107511;1308;23234;-45
2023/07/24 04:26:03;;;;;;;8.50;3.60;;;;;;;20.92;51.26;98394.89;107715;1308;22328;-46
2023/07/24 04:28:28;;;;;;;7.30;3.30;;;;;;;20.94;51.39;98394.20;107738;1308;22491;-49
2023/07/24 04:30:53;;;;;;;10.00;3.80;;;;;;;20.94;51.66;98393.48;107744;1308;23008;-45
2023/07/24 04:33:19;;;;;;;6.30;3.40;;;;;;;20.88;51.42;98389.86;107718;1308;22437;-44
2023/07/24 04:35:48;;;;;;;5.10;3.70;;;;;;;20.90;51.15;98387.30;107741;1308;22176;-46
2023/07/24 04:38:13;;;;;;;7.90;3.60;;;;;;;20.92;50.99;98391.92;107722;1308;22254;-44
2023/07/24 04:40:38;;;;;;;6.50;3.80;;;;;;;20.94;51.21;98397.78;107722;1308;22308;-48
2023/07/24 04:43:04;;;;;;;5.80;3.70;;;;;;;20.92;51.21;98398.35;107720;1308;22227;-47
2023/07/24 04:45:29;;;;;;;7.00;3.70;;;;;;;20.93;51.06;98400.73;107726;1308;22412;-44
2023/07/24 04:47:55;;;;;;;7.20;3.50;;;;;;;20.92;50.99;98402.96;107738;1308;22264;-49
2023/07/24 04:50:20;;;;;;;6.90;3.40;;;;;;;20.95;51.29;98404.35;107720;1308;23058;-46
2023/07/24 04:52:45;;;;;;;5.60;3.20;;;;;;;20.97;50.97;98404.33;107739;1285;22267;-48
2023/07/24 04:55:10;;;;;;;8.30;4.00;;;;;;;21.00;50.96;98405.02;107724;1308;23050;-48
2023/07/24 04:57:36;;;;;;;4.30;3.30;;;;;;;21.02;51.24;98403.97;107731;1308;22335;-45
2023/07/24 05:00:01;;;;;;;6.20;3.50;;;;;;;21.01;50.93;98404.02;107707;1308;22246;-47
2023/07/24 05:02:26;;;;;;;6.40;3.20;;;;;;;21.04;51.31;98408.73;107722;1308;22233;-49
2023/07/24 05:04:51;;;;;;;6.60;3.70;;;;;;;21.06;51.02;98411.83;107719;1308;22339;-47
2023/07/24 05:07:17;;;;;;;5.80;3.10;;;;;;;21.07;51.15;98409.38;107739;1308;22393;-48
2023/07/24 05:09:42;;;;;;;6.60;3.30;;;;;;;21.11;51.39;98409.33;107726;1308;23121;-47
2023/07/24 05:12:07;;;;;;;5.40;3.10;;;;;;;21.14;51.40;98402.64;107722;1308;22594;-44
2023/07/24 05:14:33;;;;;;;8.90;3.40;;;;;;;21.19;51.43;98396.54;107731;1308;22482;-48
2023/07/24 05:16:58;;;;;;;13.10;3.70;;;;;;;21.22;51.45;98395.13;107736;1308;22274;-48
2023/07/24 05:19:24;;;;;;;12.50;3.40;;;;;;;21.24;51.31;98392.05;107729;1308;22570;-45
2023/07/24 05:21:49;;;;;;;4.20;3.10;;;;;;;21.28;51.11;98395.36;107716;1308;22217;-47
2023/07/24 05:24:14;;;;;;;5.10;3.20;;;;;;;21.32;51.05;98397.01;107712;1288;23282;-47
2023/07/24 05:26:39;;;;;;;6.40;3.50;;;;;;;21.34;51.36;98406.06;107719;1308;23006;-46
2023/07/24 05:29:05;;;;;;;4.30;3.10;;;;;;;21.37;51.04;98406.27;107420;1308;22565;-45
2023/07/24 05:31:30;;;;;;;6.40;2.90;;;;;;;21.34;51.02;98409.30;106594;1308;25378;-46
2023/07/24 05:33:56;;;;;;;7.50;3.20;;;;;;;21.38;50.67;98405.27;107066;1308;22440;-46
2023/07/24 05:36:21;;;;;;;7.60;2.80;;;;;;;21.42;50.99;98407.48;107737;1308;22263;-46
2023/07/24 05:38:46;;;;;;;7.30;3.30;;;;;;;21.43;51.14;98397.64;107714;1308;22240;-45
2023/07/24 05:41:12;;;;;;;6.10;3.10;;;;;;;21.46;51.01;98399.33;106791;1308;22577;-49
2023/07/24 05:43:37;;;;;;;4.70;3.10;;;;;;;21.53;51.00;98400.20;107656;1308;23165;-47
2023/07/24 05:46:02;;;;;;;6.30;2.80;;;;;;;21.59;50.87;98397.68;107734;1308;22264;-48
2023/07/24 05:48:27;;;;;;;5.30;2.90;;;;;;;21.68;50.44;98395.59;107750;1308;22276;-46
2023/07/24 05:50:53;;;;;;;9.70;2.60;;;;;;;21.73;49.75;98394.94;107745;1308;23116;-50
2023/07/24 05:53:18;;;;;;;4.90;3.00;;;;;;;21.80;49.87;98391.72;107729;1308;22283;-48
2023/07/24 05:55:43;;;;;;;10.10;2.60;;;;;;;21.91;49.71;98394.91;107706;1308;22308;-51
2023/07/24 05:58:09;;;;;;;5.30;2.60;;;;;;;22.02;49.59;98394.82;107697;1308;22389;-45
2023/07/24 06:00:36;;;;;;;6.80;2.30;;;;;;;22.11;49.14;98395.52;106950;1308;22264;-45
2023/07/24 06:03:01;;;;;;;4.60;2.40;;;;;;;22.19;49.29;98396.17;107729;1308;22240;-46
2023/07/24 06:05:27;;;;;;;3.40;2.30;;;;;;;22.24;49.05;98399.70;107630;1308;22678;-50
2023/07/24 06:07:52;;;;;;;3.20;2.20;;;;;;;22.29;49.09;98395.61;107348;1308;23087;-43
2023/07/24 06:10:17;;;;;;;4.80;2.60;;;;;;;22.32;49.26;98392.20;107709;1308;22298;-46
2023/07/24 06:12:42;;;;;;;3.70;2.50;;;;;;;22.37;49.46;98389.55;107715;1308;22315;-48
2023/07/24 06:15:08;;;;;;;2.50;2.20;;;;;;;22.42;49.27;98392.28;107709;1308;22463;-46
2023/07/24 06:17:34;;;;;;;8.00;2.80;;;;;;;22.48;49.04;98394.18;107739;1308;22493;-42
2023/07/24 06:19:59;;;;;;;4.10;2.40;;;;;;;22.57;49.00;98394.40;107740;1308;22253;-47
2023/07/24 06:22:24;;;;;;;5.90;2.80;;;;;;;22.69;48.73;98393.16;107722;1308;23054;-46
2023/07/24 06:24:49;;;;;;;4.50;2.10;;;;;;;22.80;48.24;98389.73;107712;1308;22953;-43
2023/07/24 06:27:15;;;;;;;2.60;1.70;;;;;;;22.84;47.45;98387.80;107460;1308;25332;-50
2023/07/24 06:29:41;;;;;;;4.50;2.30;;;;;;;22.91;47.68;98387.61;107725;1308;23296;-46
2023/07/24 06:32:07;;;;;;;8.00;2.30;;;;;;;22.99;47.12;98385.77;107704;1308;22302;-48
2023/07/24 06:34:32;;;;;;;5.50;2.60;;;;;;;23.05;46.59;98385.32;107720;1308;22464;-46
2023/07/24 06:36:57;;;;;;;3.90;2.10;;;;;;;23.08;46.18;98383.27;107701;1308;22316;-48
2023/07/24 06:39:23;;;;;;;3.60;2.10;;;;;;;23.17;46.33;98383.80;106798;1308;24295;-47
2023/07/24 06:41:48;;;;;;;5.10;2.20;;;;;;;23.25;46.11;98379.89;106587;1308;22611;-45
2023/07/24 06:44:14;;;;;;;4.60;2.30;;;;;;;23.28;45.42;98377.69;106837;1308;22411;-43
2023/07/24 06:46:39;;;;;;;7.40;2.40;;;;;;;23.34;45.55;98373.39;106706;1308;22601;-44
2023/07/24 06:49:05;;;;;;;7.80;2.60;;;;;;;23.38;45.36;98363.90;107112;1308;22389;-44
2023/07/24 06:51:30;;;;;;;7.70;2.90;;;;;;;23.42;45.11;98361.80;107740;1308;22466;-51
2023/07/24 06:53:55;;;;;;;4.60;2.60;;;;;;;23.47;45.36;98358.46;107745;1308;22903;-49
2023/07/24 06:56:21;;;;;;;2.60;2.30;;;;;;;23.50;44.69;98356.71;107097;1308;22601;-44
2023/07/24 06:58:46;;;;;;;8.40;2.80;;;;;;;23.53;44.75;98352.78;107709;1308;23153;-49
2023/07/24 07:01:11;;;;;;;3.10;2.40;;;;;;;23.53;44.88;98350.52;107709;1308;23246;-47
2023/07/24 07:03:36;;;;;;;2.50;2.30;;;;;;;23.61;45.11;98347.45;107712;1289;22470;-45
2023/07/24 07:06:02;;;;;;;2.80;2.40;;;;;;;23.63;44.49;98344.66;107699;1308;23160;-51
2023/07/24 07:08:28;;;;;;;3.80;2.20;;;;;;;23.66;44.54;98343.09;107709;1308;23082;-52
2023/07/24 07:10:57;;;;;;;8.00;2.10;;;;;;;23.74;44.45;98338.09;107709;1308;22314;-44
2023/07/24 07:13:23;;;;;;;7.40;2.50;;;;;;;23.81;44.08;98340.07;107556;1308;22599;-45
2023/07/24 07:15:48;;;;;;;4.20;2.40;;;;;;;23.82;43.19;98336.48;106607;1308;24267;-47
2023/07/24 07:18:14;;;;;;;3.60;2.30;;;;;;;23.84;43.42;98338.80;106607;1308;22576;-48
2023/07/24 07:20:47;;;;;;;4.60;2.30;;;;;;;23.85;43.63;98333.65;107298;1308;22323;-52
2023/07/24 07:23:13;;;;;;;3.90;2.40;;;;;;;23.87;43.49;98332.81;107726;1308;22218;-44
2023/07/24 07:25:39;;;;;;;5.60;2.30;;;;;;;23.94;43.62;98334.19;107714;1308;22504;-47
2023/07/24 07:28:05;;;;;;;2.80;2.30;;;;;;;24.00;43.05;98328.32;107722;1308;23175;-48
2023/07/24 07:30:30;;;;;;;2.90;2.40;;;;;;;24.08;42.86;98328.23;107678;1308;22206;-50
2023/07/24 07:32:55;;;;;;;8.70;2.70;;;;;;;24.17;42.59;98328.09;107720;1308;22933;-51
2023/07/24 07:35:20;;;;;;;3.40;2.20;;;;;;;24.21;42.63;98328.40;107710;1308;22601;-48
2023/07/24 07:37:46;;;;;;;22.50;3.40;;;;;;;24.25;42.77;98328.02;107542;1308;22578;-42
2023/07/24 07:40:11;;;;;;;18.20;2.60;;;;;;;24.26;42.87;98326.50;107637;1308;22854;-44
2023/07/24 07:42:37;;;;;;;3.60;2.80;;;;;;;24.31;42.74;98328.31;107697;1308;22225;-46
2023/07/24 07:45:02;;;;;;;4.10;2.40;;;;;;;24.38;43.12;98325.25;107708;1308;22271;-43
2023/07/24 07:47:28;;;;;;;10.30;2.10;;;;;;;24.53;43.26;98319.98;107538;1308;22377;-43
2023/07/24 07:49:53;;;;;;;9.20;2.30;;;;;;;24.66;42.91;98320.23;106833;1308;22580;-42
2023/07/24 07:52:20;;;;;;;6.60;2.40;;;;;;;24.78;42.88;98321.16;107711;1307;22308;-44
2023/07/24 07:54:46;;;;;;;9.00;2.40;;;;;;;24.86;42.71;98314.90;107720;1305;23110;-40
2023/07/24 07:57:12;;;;;;;5.90;2.80;;;;;;;24.94;42.51;98309.30;107787;1301;22320;-43
2023/07/24 07:59:37;;;;;;;7.60;2.30;;;;;;;25.02;42.41;98302.14;107913;1307;22345;-44
2023/07/24 08:02:03;;;;;;;10.00;2.30;;;;;;;25.12;42.63;98301.48;107928;1307;22267;-43
2023/07/24 08:04:28;;;;;;;43.40;4.60;;;;;;;25.20;42.40;98300.98;107943;1307;22927;-41
2023/07/24 08:06:53;;;;;;;6.30;2.50;;;;;;;25.27;42.55;98303.31;107937;1307;22254;-44
2023/07/24 08:09:21;;;;;;;15.30;3.90;;;;;;;25.27;41.92;98304.21;107931;1307;22485;-42
2023/07/24 08:11:46;;;;;;;;;;;;;;;25.30;41.92;98307.03;107959;1307;22456;-42
2023/07/24 08:14:11;;;;;;;8.70;2.70;;;;;;;25.28;41.60;98306.04;107930;1307;23003;-45
2023/07/24 08:16:36;;;;;;;3.10;2.30;;;;;;;25.30;41.60;98307.08;107923;1307;22385;-47
2023/07/24 08:19:02;;;;;;;6.70;2.50;;;;;;;25.37;41.77;98309.62;107941;1307;23246;-46
2023/07/24 08:21:27;;;;;;;4.30;2.30;;;;;;;25.44;42.18;98304.91;107869;1295;22455;-47
2023/07/24 08:23:52;;;;;;;8.00;2.60;;;;;;;25.51;41.99;98296.64;107639;1307;23021;-44
2023/07/24 08:26:17;;;;;;;5.50;2.50;;;;;;;25.50;41.63;98295.80;107692;1308;22413;-45
2023/07/24 08:28:43;;;;;;;5.10;2.10;;;;;;;25.52;41.65;98295.89;107657;1301;22248;-49
2023/07/24 08:31:10;;;;;;;5.30;2.40;;;;;;;25.57;41.45;98293.83;107682;1308;23243;-45
2023/07/24 08:33:35;;;;;;;5.00;2.50;;;;;;;25.62;41.59;98297.10;107317;1310;22131;-49
2023/07/24 08:36:05;;;;;;;6.50;2.80;;;;;;;25.69;41.04;98298.68;107656;1303;22319;-50
2023/07/24 08:38:31;;;;;;;3.80;2.40;;;;;;;25.65;39.84;98300.67;107697;1307;22254;-46
2023/07/24 08:41:08;;;;;;;5.30;2.70;;;;;;;25.67;39.90;98297.52;107661;1308;22240;-47
2023/07/24 08:43:35;;;;;;;5.10;2.50;;;;;;;25.67;39.25;98303.61;107756;1308;22520;-48
2023/07/24 08:46:01;;;;;;;6.00;2.90;;;;;;;25.68;39.22;98303.33;107685;1308;22419;-47
2023/07/24 08:48:30;;;;;;;3.70;2.50;;;;;;;25.68;39.43;98301.58;107678;1301;22290;-50
2023/07/24 08:50:57;;;;;;;6.50;2.40;;;;;;;25.67;39.36;98300.17;107675;1303;23083;-52
2023/07/24 08:53:22;;;;;;;7.40;2.40;;;;;;;25.72;39.67;98292.17;107696;1308;22409;-44
2023/07/24 08:55:49;;;;;;;3.40;2.70;;;;;;;25.72;39.51;98284.10;107696;1308;22542;-56
2023/07/24 08:58:15;;;;;;;6.60;2.50;;;;;;;25.75;39.73;98278.89;107690;1308;22513;-50
2023/07/24 09:00:40;;;;;;;4.70;2.80;;;;;;;25.84;39.60;98267.90;107652;1308;22264;-41
2023/07/24 09:03:05;;;;;;;8.90;2.60;;;;;;;25.94;39.55;98265.27;107707;1308;22420;-49
2023/07/24 09:05:31;;;;;;;6.60;3.30;;;;;;;26.05;39.28;98260.62;107720;1308;22626;-53
2023/07/24 09:07:56;;;;;;;3.40;2.70;;;;;;;26.07;39.15;98256.27;107668;1308;22243;-50
2023/07/24 09:10:28;;;;;;;4.70;2.70;;;;;;;26.04;39.39;98252.98;107682;1308;22501;-60
2023/07/24 09:12:54;;;;;;;4.10;2.20;;;;;;;25.98;39.32;98253.49;107729;1308;22305;-50
2023/07/24 09:15:19;;;;;;;5.90;2.70;;;;;;;25.96;39.46;98251.88;107709;1308;23529;-53
2023/07/24 09:17:50;;;;;;;5.00;2.70;;;;;;;26.06;39.00;98246.98;107694;1308;22392;-56
2023/07/24 09:20:15;;;;;;;4.30;2.80;;;;;;;26.43;39.11;98250.14;107725;1308;22365;-48
2023/07/24 09:22:52;;;;;;;3.20;2.90;;;;;;;26.84;38.41;98248.14;107691;1308;22426;-48
2023/07/24 09:25:18;;;;;;;3.10;2.80;;;;;;;27.22;37.23;98243.00;107408;1308;22250;-44
2023/07/24 09:27:43;;;;;;;2.80;2.60;;;;;;;27.40;36.48;98240.45;107616;1304;22992;-49
2023/07/24 09:30:14;;;;;;;5.00;2.70;;;;;;;27.54;36.27;98242.16;107687;1308;22242;-46
2023/07/24 09:32:40;;;;;;;5.00;3.10;;;;;;;27.76;35.48;98241.06;107712;1308;23098;-41
2023/07/24 09:35:16;;;;;;;7.00;2.90;;;;;;;28.12;35.35;98242.47;107687;1308;23028;-55
2023/07/24 09:37:42;;;;;;;4.80;2.50;;;;;;;28.52;33.92;98239.36;107710;1308;22260;-47
2023/07/24 09:40:08;;;;;;;3.80;2.90;;;;;;;28.90;32.67;98231.42;107683;1308;23023;-51
2023/07/24 09:42:35;;;;;;;3.10;2.80;;;;;;;29.41;32.52;98227.11;107689;1308;22255;-54
2023/07/24 09:45:01;;;;;;;;;;;;;;;29.92;31.70;98236.12;107701;1308;22453;-50
2023/07/24 09:47:26;;;;;;;8.90;2.50;;;;;;;30.38;31.62;98240.45;107711;1308;22354;-48
2023/07/24 09:49:55;;;;;;;8.50;2.90;;;;;;;30.78;30.66;98235.15;107701;1308;22288;-51
2023/07/24 09:52:21;;;;;;;3.10;2.80;;;;;;;31.10;29.72;98238.98;107694;1308;22328;-53
2023/07/24 09:55:11;;;;;;;4.40;2.70;;;;;;;31.35;29.08;98235.64;107726;1308;22262;-50
2023/07/24 09:57:37;;;;;;;2.90;2.70;;;;;;;31.79;28.28;98234.75;107709;1308;23357;-49
2023/07/24 10:00:03;;;;;;;5.50;2.70;;;;;;;32.31;27.57;98233.13;107730;1308;21967;-44
2023/07/24 10:02:29;;;;;;;5.00;2.50;;;;;;;32.70;27.60;98232.25;107698;1302;23023;-49
2023/07/24 10:04:55;;;;;;;2.90;2.30;;;;;;;33.07;26.94;98227.52;107733;1308;22264;-46
2023/07/24 10:07:22;;;;;;;2.70;2.40;;;;;;;32.93;26.02;98224.86;107710;1300;22469;-49
2023/07/24 10:09:49;;;;;;;6.40;2.90;;;;;;;32.88;26.30;98232.48;107751;1308;22201;-45
2023/07/24 10:12:17;;;;;;;4.00;2.40;;;;;;;32.86;26.40;98227.98;107725;1308;22330;-54
2023/07/24 10:14:44;;;;;;;3.80;2.70;;;;;;;32.81;26.68;98222.98;107726;1291;22317;-46
2023/07/24 10:17:09;;;;;;;5.00;2.70;;;;;;;32.73;26.34;98209.39;107733;1308;22278;-50
2023/07/24 10:19:45;;;;;;;7.00;2.80;;;;;;;33.25;26.66;98196.04;107688;1308;22981;-44
2023/07/24 10:22:19;;;;;;;7.20;2.70;;;;;;;33.67;25.65;98195.94;107731;1308;22240;-46
2023/07/24 10:24:45;;;;;;;3.10;2.80;;;;;;;33.86;24.82;98195.25;107740;1308;22935;-44
2023/07/24 10:27:11;;;;;;;5.90;2.90;;;;;;;34.03;24.61;98190.45;107713;1302;22268;-50
2023/07/24 10:29:37;;;;;;;3.60;2.90;;;;;;;33.85;24.39;98183.02;107693;1308;22506;-38
2023/07/24 10:32:02;;;;;;;9.70;2.50;;;;;;;34.12;24.26;98180.79;107741;1308;22244;-54
2023/07/24 10:34:38;;;;;;;2.80;2.60;;;;;;;34.26;24.17;98188.17;107769;1307;22255;-47
2023/07/24 10:37:06;;;;;;;;;;;;;;;34.50;24.10;98185.11;107652;1308;22462;-50
2023/07/24 10:39:40;;;;;;;3.80;2.50;;;;;;;34.52;23.82;98179.77;107737;1304;22264;-49
2023/07/24 10:42:08;;;;;;;4.30;2.50;;;;;;;34.66;23.73;98178.30;107704;1308;23004;-50
2023/07/24 10:44:33;;;;;;;5.00;2.60;;;;;;;34.77;23.70;98182.88;107726;1308;22954;-49
2023/07/24 10:46:58;;;;;;;5.80;2.80;;;;;;;34.70;23.46;98178.13;107729;1291;23285;-48
2023/07/24 10:49:24;;;;;;;2.90;2.50;;;;;;;34.77;23.52;98171.99;107729;1308;23373;-42
2023/07/24 10:51:56;;;;;;;2.70;2.50;;;;;;;35.06;23.33;98170.94;107723;1308;23067;-50
2023/07/24 10:54:21;;;;;;;3.70;2.90;;;;;;;35.24;22.81;98170.48;107727;1308;22256;-49
2023/07/24 10:56:47;;;;;;;4.60;3.20;;;;;;;35.74;22.61;98177.73;107716;1308;22290;-46
2023/07/24 10:59:14;;;;;;;2.80;2.60;;;;;;;36.04;22.43;98175.65;107699;1301;22471;-47
2023/07/24 11:01:40;;;;;;;7.20;3.10;;;;;;;35.89;22.39;98177.53;107741;1308;22470;-46
2023/07/24 11:04:06;;;;;;;4.40;2.80;;;;;;;35.83;22.37;98181.62;107705;1308;22974;-54
2023/07/24 11:06:32;;;;;;;;;;;;;;;35.61;22.90;98184.48;107747;1308;22468;-48
2023/07/24 11:09:00;;;;;;;3.80;2.40;;;;;;;34.72;23.43;98190.46;107714;1308;22384;-48
2023/07/24 11:11:29;;;;;;;5.20;2.30;;;;;;;34.12;24.14;98187.72;107735;1308;22434;-46
2023/07/24 11:13:55;;;;;;;4.70;2.50;;;;;;;33.59;24.78;98183.34;107696;1308;22442;-51
2023/07/24 11:16:20;;;;;;;4.50;2.60;;;;;;;33.31;25.01;98179.84;107728;1308;22410;-46
2023/07/24 11:18:47;;;;;;;4.60;4.20;;;;;;;32.96;25.59;98168.18;107729;1308;22424;-52
2023/07/24 11:21:13;;;;;;;4.30;2.60;;;;;;;32.90;25.85;98158.98;107694;1308;22249;-45
2023/07/24 11:23:45;;;;;;;4.70;2.50;;;;;;;33.01;26.23;98149.02;107726;1308;22266;-48
2023/07/24 11:26:10;;;;;;;2.50;2.30;;;;;;;33.41;26.10;98148.69;107736;1308;22238;-50